sensor_id;sensor_type;location;lat;lon;timestamp;P1;durP1;ratioP1;P2;durP2;ratioP2
38083;SDS011;23894;51.466;7.444;2023-06-10T00:01:10;9.93;;;8.18;;
38083;SDS011;23894;51.466;7.444;2023-06-10T00:05:14;9.52;;;7.57;;
38083;SDS011;23894;51.466;7.444;2023-06-10T00:07:16;9.85;;;8.30;;
38083;SDS011;23894;51.466;7.444;2023-06-10T00:09:19;9.38;;;8.10;;
38083;SDS011;23894;51.466;7.444;2023-06-10T00:11:22;9.80;;;7.80;;
38083;SDS011;23894;51.466;7.444;2023-06-10T00:15:25;10.60;;;7.78;;
38083;SDS011;23894;51.466;7.444;2023-06-10T00:19:29;10.15;;;7.85;;
38083;SDS011;23894;51.466;7.444;2023-06-10T00:21:34;9.80;;;8.50;;
38083;SDS011;23894;51.466;7.444;2023-06-10T00:23:38;10.88;;;8.70;;
38083;SDS011;23894;51.466;7.444;2023-06-10T00:25:39;9.52;;;8.15;;
38083;SDS011;23894;51.466;7.444;2023-06-10T00:29:42;10.32;;;8.05;;
38083;SDS011;23894;51.466;7.444;2023-06-10T00:33:44;12.07;;;8.57;;
38083;SDS011;23894;51.466;7.444;2023-06-10T00:37:46;10.18;;;8.85;;
38083;SDS011;23894;51.466;7.444;2023-06-10T00:41:48;10.70;;;8.77;;
38083;SDS011;23894;51.466;7.444;2023-06-10T00:43:49;11.50;;;9.13;;
38083;SDS011;23894;51.466;7.444;2023-06-10T00:47:52;11.43;;;9.70;;
38083;SDS011;23894;51.466;7.444;2023-06-10T00:49:54;13.13;;;10.35;;
38083;SDS011;23894;51.466;7.444;2023-06-10T00:51:57;12.45;;;10.07;;
38083;SDS011;23894;51.466;7.444;2023-06-10T00:53:58;11.75;;;10.38;;
38083;SDS011;23894;51.466;7.444;2023-06-10T00:58:00;11.63;;;9.48;;
38083;SDS011;23894;51.466;7.444;2023-06-10T01:00:04;11.23;;;9.48;;
38083;SDS011;23894;51.466;7.444;2023-06-10T01:02:08;10.88;;;9.68;;
38083;SDS011;23894;51.466;7.444;2023-06-10T01:04:09;11.90;;;10.00;;
38083;SDS011;23894;51.466;7.444;2023-06-10T01:08:27;10.85;;;9.75;;
38083;SDS011;23894;51.466;7.444;2023-06-10T01:10:38;10.50;;;9.23;;
38083;SDS011;23894;51.466;7.444;2023-06-10T01:14:42;11.25;;;9.20;;
38083;SDS011;23894;51.466;7.444;2023-06-10T01:16:46;10.85;;;9.52;;
38083;SDS011;23894;51.466;7.444;2023-06-10T01:18:50;10.75;;;9.65;;
38083;SDS011;23894;51.466;7.444;2023-06-10T01:20:52;10.65;;;8.82;;
38083;SDS011;23894;51.466;7.444;2023-06-10T01:22:54;11.82;;;9.52;;
38083;SDS011;23894;51.466;7.444;2023-06-10T01:24:55;12.20;;;10.50;;
38083;SDS011;23894;51.466;7.444;2023-06-10T01:27:00;13.43;;;10.40;;
38083;SDS011;23894;51.466;7.444;2023-06-10T01:29:03;11.55;;;10.15;;
38083;SDS011;23894;51.466;7.444;2023-06-10T01:31:16;13.73;;;10.48;;
38083;SDS011;23894;51.466;7.444;2023-06-10T01:33:19;11.95;;;10.10;;
38083;SDS011;23894;51.466;7.444;2023-06-10T01:35:24;13.45;;;11.13;;
38083;SDS011;23894;51.466;7.444;2023-06-10T01:37:28;13.88;;;10.57;;
38083;SDS011;23894;51.466;7.444;2023-06-10T01:39:30;13.57;;;10.80;;
38083;SDS011;23894;51.466;7.444;2023-06-10T01:41:34;12.52;;;10.50;;
38083;SDS011;23894;51.466;7.444;2023-06-10T01:43:37;16.63;;;10.60;;
38083;SDS011;23894;51.466;7.444;2023-06-10T01:45:38;12.57;;;10.65;;
38083;SDS011;23894;51.466;7.444;2023-06-10T01:47:39;14.38;;;11.18;;
38083;SDS011;23894;51.466;7.444;2023-06-10T01:51:41;15.57;;;11.35;;
38083;SDS011;23894;51.466;7.444;2023-06-10T01:55:44;13.32;;;11.35;;
38083;SDS011;23894;51.466;7.444;2023-06-10T01:57:46;15.27;;;12.13;;
38083;SDS011;23894;51.466;7.444;2023-06-10T01:59:49;13.68;;;11.75;;
38083;SDS011;23894;51.466;7.444;2023-06-10T02:01:51;14.48;;;11.88;;
38083;SDS011;23894;51.466;7.444;2023-06-10T02:03:54;14.75;;;11.77;;
38083;SDS011;23894;51.466;7.444;2023-06-10T02:05:56;15.27;;;11.52;;
38083;SDS011;23894;51.466;7.444;2023-06-10T02:10:01;15.13;;;11.68;;
38083;SDS011;23894;51.466;7.444;2023-06-10T02:12:05;14.43;;;11.82;;
38083;SDS011;23894;51.466;7.444;2023-06-10T02:14:09;14.30;;;12.18;;
38083;SDS011;23894;51.466;7.444;2023-06-10T02:16:13;15.60;;;12.65;;
38083;SDS011;23894;51.466;7.444;2023-06-10T02:18:16;14.60;;;12.05;;
38083;SDS011;23894;51.466;7.444;2023-06-10T02:20:21;16.85;;;13.43;;
38083;SDS011;23894;51.466;7.444;2023-06-10T02:22:23;17.30;;;13.23;;
38083;SDS011;23894;51.466;7.444;2023-06-10T02:24:26;16.40;;;12.80;;
38083;SDS011;23894;51.466;7.444;2023-06-10T02:28:27;14.82;;;12.27;;
38083;SDS011;23894;51.466;7.444;2023-06-10T02:30:29;16.50;;;13.20;;
38083;SDS011;23894;51.466;7.444;2023-06-10T02:34:34;15.07;;;12.32;;
38083;SDS011;23894;51.466;7.444;2023-06-10T02:36:39;17.05;;;11.75;;
38083;SDS011;23894;51.466;7.444;2023-06-10T02:40:41;14.10;;;12.25;;
38083;SDS011;23894;51.466;7.444;2023-06-10T02:42:43;13.60;;;12.02;;
38083;SDS011;23894;51.466;7.444;2023-06-10T02:44:45;15.20;;;12.65;;
38083;SDS011;23894;51.466;7.444;2023-06-10T02:48:47;13.80;;;11.00;;
38083;SDS011;23894;51.466;7.444;2023-06-10T02:50:51;13.73;;;12.15;;
38083;SDS011;23894;51.466;7.444;2023-06-10T02:54:55;14.32;;;10.93;;
38083;SDS011;23894;51.466;7.444;2023-06-10T02:57:07;14.52;;;11.80;;
38083;SDS011;23894;51.466;7.444;2023-06-10T03:01:10;13.18;;;10.75;;
38083;SDS011;23894;51.466;7.444;2023-06-10T03:05:12;12.32;;;10.52;;
38083;SDS011;23894;51.466;7.444;2023-06-10T03:07:13;14.43;;;11.15;;
38083;SDS011;23894;51.466;7.444;2023-06-10T03:11:16;16.40;;;11.57;;
38083;SDS011;23894;51.466;7.444;2023-06-10T03:13:19;14.93;;;12.00;;
38083;SDS011;23894;51.466;7.444;2023-06-10T03:15:21;14.20;;;10.93;;
38083;SDS011;23894;51.466;7.444;2023-06-10T03:17:24;13.38;;;11.95;;
38083;SDS011;23894;51.466;7.444;2023-06-10T03:19:25;12.73;;;11.43;;
38083;SDS011;23894;51.466;7.444;2023-06-10T03:23:27;12.48;;;10.23;;
38083;SDS011;23894;51.466;7.444;2023-06-10T03:25:30;13.05;;;10.82;;
38083;SDS011;23894;51.466;7.444;2023-06-10T03:27:31;14.05;;;10.55;;
38083;SDS011;23894;51.466;7.444;2023-06-10T03:29:33;13.93;;;11.48;;
38083;SDS011;23894;51.466;7.444;2023-06-10T03:31:34;12.60;;;10.40;;
38083;SDS011;23894;51.466;7.444;2023-06-10T03:33:36;12.77;;;11.15;;
38083;SDS011;23894;51.466;7.444;2023-06-10T03:35:39;13.40;;;11.13;;
38083;SDS011;23894;51.466;7.444;2023-06-10T03:37:49;14.38;;;11.23;;
38083;SDS011;23894;51.466;7.444;2023-06-10T03:39:51;13.05;;;10.60;;
38083;SDS011;23894;51.466;7.444;2023-06-10T03:41:52;12.93;;;11.20;;
38083;SDS011;23894;51.466;7.444;2023-06-10T03:43:55;13.43;;;11.40;;
38083;SDS011;23894;51.466;7.444;2023-06-10T03:45:56;13.68;;;12.05;;
38083;SDS011;23894;51.466;7.444;2023-06-10T03:47:57;12.30;;;10.73;;
38083;SDS011;23894;51.466;7.444;2023-06-10T03:52:00;12.88;;;10.73;;
38083;SDS011;23894;51.466;7.444;2023-06-10T03:54:01;11.88;;;10.40;;
38083;SDS011;23894;51.466;7.444;2023-06-10T03:56:02;12.45;;;11.13;;
38083;SDS011;23894;51.466;7.444;2023-06-10T04:00:05;14.07;;;10.80;;
38083;SDS011;23894;51.466;7.444;2023-06-10T04:02:12;15.45;;;11.80;;
38083;SDS011;23894;51.466;7.444;2023-06-10T04:04:15;12.20;;;10.70;;
38083;SDS011;23894;51.466;7.444;2023-06-10T04:06:18;13.18;;;11.23;;
38083;SDS011;23894;51.466;7.444;2023-06-10T04:08:21;12.50;;;11.18;;
38083;SDS011;23894;51.466;7.444;2023-06-10T04:10:23;13.25;;;10.88;;
38083;SDS011;23894;51.466;7.444;2023-06-10T04:12:25;13.75;;;10.95;;
38083;SDS011;23894;51.466;7.444;2023-06-10T04:14:26;13.68;;;11.38;;
38083;SDS011;23894;51.466;7.444;2023-06-10T04:18:28;12.23;;;10.80;;
38083;SDS011;23894;51.466;7.444;2023-06-10T04:22:29;11.68;;;9.73;;
38083;SDS011;23894;51.466;7.444;2023-06-10T04:24:32;13.63;;;11.10;;
38083;SDS011;23894;51.466;7.444;2023-06-10T04:26:35;12.23;;;10.38;;
38083;SDS011;23894;51.466;7.444;2023-06-10T04:28:37;12.85;;;10.48;;
38083;SDS011;23894;51.466;7.444;2023-06-10T04:32:38;11.43;;;10.05;;
38083;SDS011;23894;51.466;7.444;2023-06-10T04:34:41;12.95;;;10.85;;
38083;SDS011;23894;51.466;7.444;2023-06-10T04:36:43;13.43;;;11.10;;
38083;SDS011;23894;51.466;7.444;2023-06-10T04:38:44;13.88;;;11.60;;
38083;SDS011;23894;51.466;7.444;2023-06-10T04:40:47;13.48;;;12.07;;
38083;SDS011;23894;51.466;7.444;2023-06-10T04:42:51;13.55;;;11.57;;
38083;SDS011;23894;51.466;7.444;2023-06-10T04:44:52;13.80;;;11.93;;
38083;SDS011;23894;51.466;7.444;2023-06-10T04:48:54;13.05;;;10.75;;
38083;SDS011;23894;51.466;7.444;2023-06-10T04:50:55;16.42;;;12.68;;
38083;SDS011;23894;51.466;7.444;2023-06-10T04:54:57;14.27;;;12.77;;
38083;SDS011;23894;51.466;7.444;2023-06-10T04:59:00;16.42;;;14.32;;
38083;SDS011;23894;51.466;7.444;2023-06-10T05:01:03;17.15;;;15.07;;
38083;SDS011;23894;51.466;7.444;2023-06-10T05:03:05;16.20;;;14.50;;
38083;SDS011;23894;51.466;7.444;2023-06-10T05:05:07;18.25;;;14.50;;
38083;SDS011;23894;51.466;7.444;2023-06-10T05:09:10;15.27;;;13.25;;
38083;SDS011;23894;51.466;7.444;2023-06-10T05:11:12;15.25;;;12.95;;
38083;SDS011;23894;51.466;7.444;2023-06-10T05:15:14;14.27;;;12.35;;
38083;SDS011;23894;51.466;7.444;2023-06-10T05:19:16;14.25;;;11.80;;
38083;SDS011;23894;51.466;7.444;2023-06-10T05:21:17;14.63;;;12.00;;
38083;SDS011;23894;51.466;7.444;2023-06-10T05:25:21;13.55;;;11.23;;
38083;SDS011;23894;51.466;7.444;2023-06-10T05:27:24;13.52;;;11.50;;
38083;SDS011;23894;51.466;7.444;2023-06-10T05:29:25;13.77;;;11.80;;
38083;SDS011;23894;51.466;7.444;2023-06-10T05:31:27;13.38;;;11.25;;
38083;SDS011;23894;51.466;7.444;2023-06-10T05:35:30;14.30;;;11.80;;
38083;SDS011;23894;51.466;7.444;2023-06-10T05:37:33;14.60;;;11.85;;
38083;SDS011;23894;51.466;7.444;2023-06-10T05:39:35;14.60;;;12.30;;
38083;SDS011;23894;51.466;7.444;2023-06-10T05:41:39;13.55;;;10.95;;
38083;SDS011;23894;51.466;7.444;2023-06-10T05:45:42;11.07;;;9.50;;
38083;SDS011;23894;51.466;7.444;2023-06-10T05:49:44;13.13;;;10.10;;
38083;SDS011;23894;51.466;7.444;2023-06-10T05:51:49;14.43;;;10.43;;
38083;SDS011;23894;51.466;7.444;2023-06-10T05:53:52;12.73;;;10.25;;
38083;SDS011;23894;51.466;7.444;2023-06-10T05:58:00;12.00;;;9.95;;
38083;SDS011;23894;51.466;7.444;2023-06-10T06:00:01;12.15;;;9.48;;
38083;SDS011;23894;51.466;7.444;2023-06-10T06:02:02;11.65;;;9.48;;
38083;SDS011;23894;51.466;7.444;2023-06-10T06:04:04;12.63;;;8.88;;
38083;SDS011;23894;51.466;7.444;2023-06-10T06:08:05;11.10;;;8.13;;
38083;SDS011;23894;51.466;7.444;2023-06-10T06:12:07;11.68;;;8.38;;
38083;SDS011;23894;51.466;7.444;2023-06-10T06:14:08;13.05;;;8.68;;
38083;SDS011;23894;51.466;7.444;2023-06-10T06:16:11;11.23;;;8.85;;
38083;SDS011;23894;51.466;7.444;2023-06-10T06:18:14;12.07;;;8.65;;
38083;SDS011;23894;51.466;7.444;2023-06-10T06:22:16;13.13;;;7.82;;
38083;SDS011;23894;51.466;7.444;2023-06-10T06:24:20;10.90;;;7.90;;
38083;SDS011;23894;51.466;7.444;2023-06-10T06:28:22;10.32;;;7.70;;
38083;SDS011;23894;51.466;7.444;2023-06-10T06:30:23;11.00;;;7.75;;
38083;SDS011;23894;51.466;7.444;2023-06-10T06:32:24;11.30;;;7.63;;
38083;SDS011;23894;51.466;7.444;2023-06-10T06:34:27;12.02;;;7.70;;
38083;SDS011;23894;51.466;7.444;2023-06-10T06:38:30;11.05;;;7.25;;
38083;SDS011;23894;51.466;7.444;2023-06-10T06:42:32;14.25;;;7.28;;
38083;SDS011;23894;51.466;7.444;2023-06-10T06:44:33;11.23;;;7.70;;
38083;SDS011;23894;51.466;7.444;2023-06-10T06:46:36;12.48;;;7.60;;
38083;SDS011;23894;51.466;7.444;2023-06-10T06:50:38;10.38;;;7.18;;
38083;SDS011;23894;51.466;7.444;2023-06-10T06:52:41;12.05;;;7.47;;
38083;SDS011;23894;51.466;7.444;2023-06-10T06:56:43;12.48;;;6.65;;
38083;SDS011;23894;51.466;7.444;2023-06-10T07:00:45;9.40;;;7.80;;
38083;SDS011;23894;51.466;7.444;2023-06-10T07:04:47;9.60;;;6.72;;
38083;SDS011;23894;51.466;7.444;2023-06-10T07:06:49;12.57;;;7.22;;
38083;SDS011;23894;51.466;7.444;2023-06-10T07:10:51;9.57;;;6.65;;
38083;SDS011;23894;51.466;7.444;2023-06-10T07:12:53;13.27;;;7.47;;
38083;SDS011;23894;51.466;7.444;2023-06-10T07:14:55;11.75;;;7.88;;
38083;SDS011;23894;51.466;7.444;2023-06-10T07:18:57;9.40;;;6.75;;
38083;SDS011;23894;51.466;7.444;2023-06-10T07:22:59;10.45;;;7.28;;
38083;SDS011;23894;51.466;7.444;2023-06-10T07:27:03;11.75;;;7.00;;
38083;SDS011;23894;51.466;7.444;2023-06-10T07:29:05;10.18;;;7.22;;
38083;SDS011;23894;51.466;7.444;2023-06-10T07:33:08;10.48;;;7.28;;
38083;SDS011;23894;51.466;7.444;2023-06-10T07:35:10;9.52;;;6.65;;
38083;SDS011;23894;51.466;7.444;2023-06-10T07:39:12;10.35;;;7.30;;
38083;SDS011;23894;51.466;7.444;2023-06-10T07:41:13;12.48;;;6.97;;
38083;SDS011;23894;51.466;7.444;2023-06-10T07:43:19;12.80;;;7.05;;
38083;SDS011;23894;51.466;7.444;2023-06-10T07:45:20;10.48;;;7.13;;
38083;SDS011;23894;51.466;7.444;2023-06-10T07:47:20;8.75;;;6.72;;
38083;SDS011;23894;51.466;7.444;2023-06-10T07:49:23;9.23;;;6.60;;
38083;SDS011;23894;51.466;7.444;2023-06-10T07:51:24;8.98;;;7.03;;
38083;SDS011;23894;51.466;7.444;2023-06-10T07:53:25;8.75;;;6.45;;
38083;SDS011;23894;51.466;7.444;2023-06-10T07:57:26;9.40;;;6.65;;
38083;SDS011;23894;51.466;7.444;2023-06-10T08:01:29;9.95;;;6.55;;
38083;SDS011;23894;51.466;7.444;2023-06-10T08:03:31;10.98;;;7.28;;
38083;SDS011;23894;51.466;7.444;2023-06-10T08:05:32;12.50;;;6.63;;
38083;SDS011;23894;51.466;7.444;2023-06-10T08:07:34;10.00;;;6.78;;
38083;SDS011;23894;51.466;7.444;2023-06-10T08:09:36;11.43;;;6.95;;
38083;SDS011;23894;51.466;7.444;2023-06-10T08:11:38;10.10;;;6.47;;
38083;SDS011;23894;51.466;7.444;2023-06-10T08:13:39;9.70;;;5.85;;
38083;SDS011;23894;51.466;7.444;2023-06-10T08:15:40;9.63;;;5.85;;
38083;SDS011;23894;51.466;7.444;2023-06-10T08:17:42;9.50;;;6.00;;
38083;SDS011;23894;51.466;7.444;2023-06-10T08:19:45;9.13;;;6.22;;
38083;SDS011;23894;51.466;7.444;2023-06-10T08:21:46;8.75;;;6.18;;
38083;SDS011;23894;51.466;7.444;2023-06-10T08:23:47;10.07;;;6.10;;
38083;SDS011;23894;51.466;7.444;2023-06-10T08:25:49;8.27;;;6.15;;
38083;SDS011;23894;51.466;7.444;2023-06-10T08:27:51;12.50;;;6.15;;
38083;SDS011;23894;51.466;7.444;2023-06-10T08:29:52;10.23;;;6.80;;
38083;SDS011;23894;51.466;7.444;2023-06-10T08:31:53;9.82;;;6.13;;
38083;SDS011;23894;51.466;7.444;2023-06-10T08:33:55;11.43;;;6.30;;
38083;SDS011;23894;51.466;7.444;2023-06-10T08:35:58;9.00;;;5.78;;
38083;SDS011;23894;51.466;7.444;2023-06-10T08:38:02;10.52;;;6.18;;
38083;SDS011;23894;51.466;7.444;2023-06-10T08:40:04;9.32;;;6.40;;
38083;SDS011;23894;51.466;7.444;2023-06-10T08:44:17;8.82;;;5.90;;
38083;SDS011;23894;51.466;7.444;2023-06-10T08:46:18;8.63;;;5.57;;
38083;SDS011;23894;51.466;7.444;2023-06-10T08:48:21;10.40;;;6.07;;
38083;SDS011;23894;51.466;7.444;2023-06-10T08:50:22;10.57;;;6.03;;
38083;SDS011;23894;51.466;7.444;2023-06-10T08:52:23;9.23;;;5.88;;
38083;SDS011;23894;51.466;7.444;2023-06-10T08:54:33;9.48;;;6.20;;
38083;SDS011;23894;51.466;7.444;2023-06-10T08:56:39;10.98;;;5.70;;
38083;SDS011;23894;51.466;7.444;2023-06-10T08:58:41;11.20;;;5.88;;
38083;SDS011;23894;51.466;7.444;2023-06-10T09:00:44;11.02;;;5.82;;
38083;SDS011;23894;51.466;7.444;2023-06-10T09:02:45;9.15;;;5.78;;
38083;SDS011;23894;51.466;7.444;2023-06-10T09:04:47;12.32;;;6.30;;
38083;SDS011;23894;51.466;7.444;2023-06-10T09:06:54;11.82;;;5.65;;
38083;SDS011;23894;51.466;7.444;2023-06-10T09:08:55;10.88;;;6.10;;
38083;SDS011;23894;51.466;7.444;2023-06-10T09:10:56;11.65;;;6.38;;
38083;SDS011;23894;51.466;7.444;2023-06-10T09:13:00;13.02;;;7.15;;
38083;SDS011;23894;51.466;7.444;2023-06-10T09:15:01;14.70;;;6.97;;
38083;SDS011;23894;51.466;7.444;2023-06-10T09:17:02;20.23;;;8.70;;
38083;SDS011;23894;51.466;7.444;2023-06-10T09:19:05;12.25;;;7.07;;
38083;SDS011;23894;51.466;7.444;2023-06-10T09:21:11;12.73;;;7.05;;
38083;SDS011;23894;51.466;7.444;2023-06-10T09:23:12;11.85;;;6.82;;
38083;SDS011;23894;51.466;7.444;2023-06-10T09:25:14;17.25;;;7.95;;
38083;SDS011;23894;51.466;7.444;2023-06-10T09:27:17;13.18;;;7.35;;
38083;SDS011;23894;51.466;7.444;2023-06-10T09:29:18;11.68;;;6.30;;
38083;SDS011;23894;51.466;7.444;2023-06-10T09:31:18;12.05;;;6.93;;
38083;SDS011;23894;51.466;7.444;2023-06-10T09:33:23;8.00;;;5.53;;
38083;SDS011;23894;51.466;7.444;2023-06-10T09:35:27;9.05;;;6.20;;
38083;SDS011;23894;51.466;7.444;2023-06-10T09:37:28;10.55;;;6.25;;
38083;SDS011;23894;51.466;7.444;2023-06-10T09:39:29;11.70;;;5.93;;
38083;SDS011;23894;51.466;7.444;2023-06-10T09:41:34;9.43;;;5.70;;
38083;SDS011;23894;51.466;7.444;2023-06-10T09:43:44;8.40;;;5.72;;
38083;SDS011;23894;51.466;7.444;2023-06-10T09:45:49;8.73;;;6.03;;
38083;SDS011;23894;51.466;7.444;2023-06-10T09:47:53;8.40;;;5.93;;
38083;SDS011;23894;51.466;7.444;2023-06-10T09:49:55;11.05;;;6.32;;
38083;SDS011;23894;51.466;7.444;2023-06-10T09:51:57;9.40;;;5.97;;
38083;SDS011;23894;51.466;7.444;2023-06-10T09:53:58;8.75;;;5.75;;
38083;SDS011;23894;51.466;7.444;2023-06-10T09:55:59;8.75;;;5.57;;
38083;SDS011;23894;51.466;7.444;2023-06-10T09:58:00;10.00;;;5.68;;
38083;SDS011;23894;51.466;7.444;2023-06-10T10:00:11;8.90;;;5.75;;
38083;SDS011;23894;51.466;7.444;2023-06-10T10:02:17;11.05;;;6.18;;
38083;SDS011;23894;51.466;7.444;2023-06-10T10:04:22;8.80;;;5.88;;
38083;SDS011;23894;51.466;7.444;2023-06-10T10:06:25;9.18;;;5.55;;
38083;SDS011;23894;51.466;7.444;2023-06-10T10:08:28;8.93;;;5.90;;
38083;SDS011;23894;51.466;7.444;2023-06-10T10:10:29;7.72;;;5.18;;
38083;SDS011;23894;51.466;7.444;2023-06-10T10:12:31;11.98;;;5.95;;
38083;SDS011;23894;51.466;7.444;2023-06-10T10:14:32;8.48;;;6.07;;
38083;SDS011;23894;51.466;7.444;2023-06-10T10:16:35;8.88;;;5.47;;
38083;SDS011;23894;51.466;7.444;2023-06-10T10:18:43;9.45;;;6.07;;
38083;SDS011;23894;51.466;7.444;2023-06-10T10:20:47;10.20;;;5.78;;
38083;SDS011;23894;51.466;7.444;2023-06-10T10:22:53;10.88;;;6.10;;
38083;SDS011;23894;51.466;7.444;2023-06-10T10:25:12;8.45;;;6.28;;
38083;SDS011;23894;51.466;7.444;2023-06-10T10:27:20;9.43;;;5.85;;
38083;SDS011;23894;51.466;7.444;2023-06-10T10:29:31;8.18;;;5.70;;
38083;SDS011;23894;51.466;7.444;2023-06-10T10:31:56;9.57;;;6.30;;
38083;SDS011;23894;51.466;7.444;2023-06-10T10:34:04;10.30;;;5.85;;
38083;SDS011;23894;51.466;7.444;2023-06-10T10:36:07;8.57;;;5.72;;
38083;SDS011;23894;51.466;7.444;2023-06-10T10:38:08;9.52;;;5.80;;
38083;SDS011;23894;51.466;7.444;2023-06-10T10:40:10;11.30;;;6.20;;
38083;SDS011;23894;51.466;7.444;2023-06-10T10:42:12;8.55;;;5.80;;
38083;SDS011;23894;51.466;7.444;2023-06-10T10:44:14;10.25;;;5.85;;
38083;SDS011;23894;51.466;7.444;2023-06-10T10:46:16;13.32;;;5.80;;
38083;SDS011;23894;51.466;7.444;2023-06-10T10:48:18;10.63;;;5.70;;
38083;SDS011;23894;51.466;7.444;2023-06-10T10:50:21;10.07;;;5.85;;
38083;SDS011;23894;51.466;7.444;2023-06-10T10:52:22;8.90;;;5.95;;
38083;SDS011;23894;51.466;7.444;2023-06-10T10:54:30;9.82;;;6.00;;
38083;SDS011;23894;51.466;7.444;2023-06-10T10:56:31;9.00;;;5.97;;
38083;SDS011;23894;51.466;7.444;2023-06-10T10:58:35;10.52;;;6.10;;
38083;SDS011;23894;51.466;7.444;2023-06-10T11:00:38;8.30;;;5.85;;
38083;SDS011;23894;51.466;7.444;2023-06-10T11:02:45;9.02;;;6.07;;
38083;SDS011;23894;51.466;7.444;2023-06-10T11:04:48;9.30;;;6.40;;
38083;SDS011;23894;51.466;7.444;2023-06-10T11:06:52;8.07;;;5.90;;
38083;SDS011;23894;51.466;7.444;2023-06-10T11:08:55;11.52;;;6.18;;
38083;SDS011;23894;51.466;7.444;2023-06-10T11:10:56;10.77;;;6.15;;
38083;SDS011;23894;51.466;7.444;2023-06-10T11:12:58;12.90;;;6.03;;
38083;SDS011;23894;51.466;7.444;2023-06-10T11:15:00;13.50;;;6.78;;
38083;SDS011;23894;51.466;7.444;2023-06-10T11:17:01;13.13;;;6.47;;
38083;SDS011;23894;51.466;7.444;2023-06-10T11:19:39;13.07;;;6.25;;
38083;SDS011;23894;51.466;7.444;2023-06-10T11:22:03;9.27;;;6.43;;
38083;SDS011;23894;51.466;7.444;2023-06-10T11:24:14;10.43;;;6.68;;
38083;SDS011;23894;51.466;7.444;2023-06-10T11:28:19;9.13;;;6.25;;
38083;SDS011;23894;51.466;7.444;2023-06-10T11:30:20;10.10;;;6.55;;
38083;SDS011;23894;51.466;7.444;2023-06-10T11:32:32;10.45;;;5.97;;
38083;SDS011;23894;51.466;7.444;2023-06-10T11:34:34;11.35;;;6.53;;
38083;SDS011;23894;51.466;7.444;2023-06-10T11:36:37;12.95;;;5.88;;
38083;SDS011;23894;51.466;7.444;2023-06-10T11:38:40;8.60;;;5.88;;
38083;SDS011;23894;51.466;7.444;2023-06-10T11:40:46;10.02;;;5.47;;
38083;SDS011;23894;51.466;7.444;2023-06-10T11:42:47;10.85;;;5.90;;
38083;SDS011;23894;51.466;7.444;2023-06-10T11:44:48;11.98;;;6.18;;
38083;SDS011;23894;51.466;7.444;2023-06-10T11:46:50;13.20;;;5.88;;
38083;SDS011;23894;51.466;7.444;2023-06-10T11:48:51;13.95;;;7.28;;
38083;SDS011;23894;51.466;7.444;2023-06-10T11:50:52;12.05;;;6.78;;
38083;SDS011;23894;51.466;7.444;2023-06-10T11:52:55;11.82;;;6.70;;
38083;SDS011;23894;51.466;7.444;2023-06-10T11:54:56;9.57;;;6.30;;
38083;SDS011;23894;51.466;7.444;2023-06-10T11:56:57;10.30;;;6.20;;
38083;SDS011;23894;51.466;7.444;2023-06-10T11:59:01;11.65;;;6.22;;
38083;SDS011;23894;51.466;7.444;2023-06-10T12:01:04;10.20;;;5.85;;
38083;SDS011;23894;51.466;7.444;2023-06-10T12:03:05;12.63;;;6.50;;
38083;SDS011;23894;51.466;7.444;2023-06-10T12:05:10;8.00;;;5.70;;
38083;SDS011;23894;51.466;7.444;2023-06-10T12:07:18;11.30;;;6.65;;
38083;SDS011;23894;51.466;7.444;2023-06-10T12:09:24;12.50;;;6.15;;
38083;SDS011;23894;51.466;7.444;2023-06-10T12:11:25;11.35;;;5.93;;
38083;SDS011;23894;51.466;7.444;2023-06-10T12:13:28;10.90;;;6.43;;
38083;SDS011;23894;51.466;7.444;2023-06-10T12:15:30;8.98;;;6.10;;
38083;SDS011;23894;51.466;7.444;2023-06-10T12:19:38;10.15;;;6.30;;
38083;SDS011;23894;51.466;7.444;2023-06-10T12:21:43;9.80;;;5.78;;
38083;SDS011;23894;51.466;7.444;2023-06-10T12:26:05;9.70;;;5.70;;
38083;SDS011;23894;51.466;7.444;2023-06-10T12:28:09;10.20;;;6.07;;
38083;SDS011;23894;51.466;7.444;2023-06-10T12:30:17;10.50;;;6.63;;
38083;SDS011;23894;51.466;7.444;2023-06-10T12:32:20;9.98;;;5.82;;
38083;SDS011;23894;51.466;7.444;2023-06-10T12:34:27;9.70;;;6.03;;
38083;SDS011;23894;51.466;7.444;2023-06-10T12:36:30;10.75;;;5.57;;
38083;SDS011;23894;51.466;7.444;2023-06-10T12:38:32;9.40;;;6.22;;
38083;SDS011;23894;51.466;7.444;2023-06-10T12:40:34;9.07;;;5.90;;
38083;SDS011;23894;51.466;7.444;2023-06-10T12:42:36;10.13;;;5.82;;
38083;SDS011;23894;51.466;7.444;2023-06-10T12:44:40;9.50;;;5.93;;
38083;SDS011;23894;51.466;7.444;2023-06-10T12:46:42;8.07;;;5.63;;
38083;SDS011;23894;51.466;7.444;2023-06-10T12:48:49;8.40;;;5.32;;
38083;SDS011;23894;51.466;7.444;2023-06-10T12:50:57;10.70;;;6.38;;
38083;SDS011;23894;51.466;7.444;2023-06-10T12:53:00;10.00;;;5.97;;
38083;SDS011;23894;51.466;7.444;2023-06-10T12:55:01;8.32;;;6.18;;
38083;SDS011;23894;51.466;7.444;2023-06-10T12:57:05;8.10;;;5.72;;
38083;SDS011;23894;51.466;7.444;2023-06-10T12:59:07;11.35;;;6.25;;
38083;SDS011;23894;51.466;7.444;2023-06-10T13:01:07;9.23;;;6.65;;
38083;SDS011;23894;51.466;7.444;2023-06-10T13:03:09;9.25;;;6.10;;
38083;SDS011;23894;51.466;7.444;2023-06-10T13:05:11;10.27;;;6.15;;
38083;SDS011;23894;51.466;7.444;2023-06-10T13:07:14;9.63;;;5.95;;
38083;SDS011;23894;51.466;7.444;2023-06-10T13:09:16;10.18;;;6.03;;
38083;SDS011;23894;51.466;7.444;2023-06-10T13:11:18;7.85;;;5.93;;
38083;SDS011;23894;51.466;7.444;2023-06-10T13:13:19;8.70;;;6.30;;
38083;SDS011;23894;51.466;7.444;2023-06-10T13:15:22;7.57;;;5.93;;
38083;SDS011;23894;51.466;7.444;2023-06-10T13:17:23;11.10;;;6.72;;
38083;SDS011;23894;51.466;7.444;2023-06-10T13:19:27;8.43;;;6.00;;
38083;SDS011;23894;51.466;7.444;2023-06-10T13:21:34;12.90;;;6.15;;
38083;SDS011;23894;51.466;7.444;2023-06-10T13:23:35;8.95;;;6.22;;
38083;SDS011;23894;51.466;7.444;2023-06-10T13:25:37;9.27;;;5.65;;
38083;SDS011;23894;51.466;7.444;2023-06-10T13:27:40;11.00;;;5.82;;
38083;SDS011;23894;51.466;7.444;2023-06-10T13:29:42;9.98;;;6.38;;
38083;SDS011;23894;51.466;7.444;2023-06-10T13:31:43;9.50;;;5.68;;
38083;SDS011;23894;51.466;7.444;2023-06-10T13:33:45;8.02;;;5.55;;
38083;SDS011;23894;51.466;7.444;2023-06-10T13:35:48;9.10;;;5.93;;
38083;SDS011;23894;51.466;7.444;2023-06-10T13:37:50;10.25;;;6.05;;
38083;SDS011;23894;51.466;7.444;2023-06-10T13:39:52;8.60;;;6.20;;
38083;SDS011;23894;51.466;7.444;2023-06-10T13:41:54;7.65;;;6.00;;
38083;SDS011;23894;51.466;7.444;2023-06-10T13:43:56;10.95;;;6.18;;
38083;SDS011;23894;51.466;7.444;2023-06-10T13:45:57;10.52;;;6.05;;
38083;SDS011;23894;51.466;7.444;2023-06-10T13:47:59;8.20;;;5.93;;
38083;SDS011;23894;51.466;7.444;2023-06-10T13:50:04;8.93;;;5.93;;
38083;SDS011;23894;51.466;7.444;2023-06-10T13:52:05;11.23;;;5.95;;
38083;SDS011;23894;51.466;7.444;2023-06-10T13:54:08;8.98;;;5.63;;
38083;SDS011;23894;51.466;7.444;2023-06-10T13:56:10;8.00;;;5.90;;
38083;SDS011;23894;51.466;7.444;2023-06-10T13:58:11;8.93;;;5.95;;
38083;SDS011;23894;51.466;7.444;2023-06-10T14:00:14;9.35;;;5.65;;
38083;SDS011;23894;51.466;7.444;2023-06-10T14:02:16;7.43;;;5.53;;
38083;SDS011;23894;51.466;7.444;2023-06-10T14:04:19;8.55;;;5.90;;
38083;SDS011;23894;51.466;7.444;2023-06-10T14:06:20;10.07;;;5.63;;
38083;SDS011;23894;51.466;7.444;2023-06-10T14:08:22;8.55;;;6.25;;
38083;SDS011;23894;51.466;7.444;2023-06-10T14:10:23;10.00;;;5.90;;
38083;SDS011;23894;51.466;7.444;2023-06-10T14:12:27;7.85;;;5.57;;